Wilberforce, OH (45384)

12:47 PM EDT on May 29, 2015 (GMT -0400)
SPCLA | | Change Station
CLOSE
Current Station
Personal Weather Station
Location: Xenia, OH
Elevation: 1033 ft
Nearby Weather Stations

Elev 1033 ft 39.71 °N, 83.85 °W | Updated 4 minutes ago

Partly Cloudy
Partly Cloudy
80.1 °F
Feels Like 83 °F
N
4.0
Wind Variable Wind from East
Gusts 15.0 mph

Today
High -- | Low -- °F
--% Chance of Precip.
Yesterday
High -- | Low -- °F
Precip. -- in
6:11 AM 8:55 PM
Waxing Gibbous, 84% visible
Pressure 30.16 in
Visibility 10.0 miles
Clouds Scattered Clouds 2700 ft
Heat Index 83 °F
Dew Point 69 °F
Humidity 68%
Rainfall 0.00 in
Snow Depth Not available.
UV 8 out of 12
Pollen 6.60 out of 12
Air Quality Not available.
Flu Activity Local Activity
METAR KSGH 291556Z AUTO 21013G17KT 10SM SCT027 27/20 A3018 RMK AO2 T02660200 SLP212

More Conditions Fewer Conditions

Pressure 30.16 in
Visibility 10.0 miles
Clouds Scattered Clouds 2700 ft
Heat Index 83 °F
Dew Point 69 °F
Humidity 68%
Rainfall 0.00 in
Snow Depth Not available.
UV 8 out of 12
Pollen 6.60 out of 12
Air Quality Not available.
Flu Activity Local Activity
METAR KSGH 291556Z AUTO 21013G17KT 10SM SCT027 27/20 A3018 RMK AO2 T02660200 SLP212

More Conditions Fewer Conditions

10-Day Weather Forecast

Almanac

Astronomy

May. 29, 2015 Rise Set
Actual Time
Civil Twilight
Nautical Twilight
Astronomical Twilight
Moon
Length of Visible Light
Length of Day
Tomorrow will be .
, % of the Moon is Illuminated

Today's Extremes

State Highs State Lows

Community

WunderPhotos

Upload Photos

1,825,301 photos uploaded!

WunderBlogs® & News

Nearby

Air Quality

  Air Quality AQ Index Pollutant
Not available.

Snow Depth

Station Depth Elevation

Earthquake Activity

City Distance Mag. Time & Date
Minimum magnitude displayed is 2.5.

Coastal Water Temperatures

Place Temperature

Stations

Nearby Weather Stations

Station Location Temp. Windchill Dew Point Humidity Wind Precip. Elev Updated Type